Aviation Digital Data Service (ADDS)

Output produced by METARs form (0100 UTC 20 April 2019)
found at http://www.aviationweather.gov/metar/data/
 
METAR text: RJNG 191322Z 30012KT 9999 FEW150 SCT/// 14/02 Q1013 RMK 2AC150 A2992
Conditions at: RJNG (GIFU (JASDF) , JP) observed 1322 UTC 19 April 2019
Temperature: 14.0°C (57°F)
Dewpoint: 2.0°C (36°F) [RH = 44%]
Pressure (altimeter): 29.91 inches Hg (1013.0 mb)
Winds: from the WNW (300 degrees) at 14 MPH (12 knots; 6.2 m/s)
Visibility: 6 or more miles (10+ km)
Ceiling: at least 12,000 feet AGL
Clouds: few clouds at 15000 feet AGL
Weather: no significant weather observed at this time

METAR text: RJNG 190643Z 31012KT 9999 FEW050 BKN230 21/06 Q1011 RMK 1SC050 A2986
Conditions at: RJNG (GIFU (JASDF) , JP) observed 0643 UTC 19 April 2019
Temperature: 21.0°C (70°F)
Dewpoint: 6.0°C (43°F) [RH = 38%]
Pressure (altimeter): 29.85 inches Hg (1011.0 mb)
Winds: from the NW (310 degrees) at 14 MPH (12 knots; 6.2 m/s)
Visibility: 6 or more miles (10+ km)
Ceiling: 23000 feet AGL
Clouds: few clouds at 5000 feet AGL
broken clouds at 23000 feet AGL
Weather: no significant weather observed at this time

METAR text: RJNG 190107Z 31004KT 260V020 9999 SCT050 BKN100 BKN230 21/09 Q1013 RMK 3SC050 5AC100 A2993
Conditions at: RJNG (GIFU (JASDF) , JP) observed 0107 UTC 19 April 2019
Temperature: 21.0°C (70°F)
Dewpoint: 9.0°C (48°F) [RH = 46%]
Pressure (altimeter): 29.91 inches Hg (1013.0 mb)
Winds: from the NW (310 degrees) at 5 MPH (4 knots; 2.1 m/s)
Visibility: 6 or more miles (10+ km)
Ceiling: 10000 feet AGL
Clouds: scattered clouds at 5000 feet AGL
broken clouds at 10000 feet AGL
broken clouds at 23000 feet AGL
Weather: no significant weather observed at this time

METAR text: RJNG 190046Z 33004KT 280V020 9999 SCT050 SCT080 BKN230 20/07 Q1013 RMK 4SC050 3AC080 A2993
Conditions at: RJNG (GIFU (JASDF) , JP) observed 0046 UTC 19 April 2019
Temperature: 20.0°C (68°F)
Dewpoint: 7.0°C (45°F) [RH = 43%]
Pressure (altimeter): 29.91 inches Hg (1013.0 mb)
Winds: from the NNW (330 degrees) at 5 MPH (4 knots; 2.1 m/s)
Visibility: 6 or more miles (10+ km)
Ceiling: 23000 feet AGL
Clouds: scattered clouds at 5000 feet AGL
scattered clouds at 8000 feet AGL
broken clouds at 23000 feet AGL
Weather: no significant weather observed at this time

METAR text: RJNG 190030Z 01003KT 290V100 9999 BKN050 SCT080 BKN230 19/08 Q1013 RMK 5SC050 3AC080 A2994
Conditions at: RJNG (GIFU (JASDF) , JP) observed 0030 UTC 19 April 2019
Temperature: 19.0°C (66°F)
Dewpoint: 8.0°C (46°F) [RH = 49%]
Pressure (altimeter): 29.91 inches Hg (1013.0 mb)
Winds: from the N (10 degrees) at 3 MPH (3 knots; 1.5 m/s)
Visibility: 6 or more miles (10+ km)
Ceiling: 5000 feet AGL
Clouds: broken clouds at 5000 feet AGL
scattered clouds at 8000 feet AGL
broken clouds at 23000 feet AGL
Weather: no significant weather observed at this time

METAR text: RJNG 182315Z 02003KT 9999 FEW050 BKN230 17/09 Q1013 RMK 2SC050 A2994
Conditions at: RJNG (GIFU (JASDF) , JP) observed 2315 UTC 18 April 2019
Temperature: 17.0°C (63°F)
Dewpoint: 9.0°C (48°F) [RH = 59%]
Pressure (altimeter): 29.91 inches Hg (1013.0 mb)
Winds: from the NNE (20 degrees) at 3 MPH (3 knots; 1.5 m/s)
Visibility: 6 or more miles (10+ km)
Ceiling: 23000 feet AGL
Clouds: few clouds at 5000 feet AGL
broken clouds at 23000 feet AGL
Weather: no significant weather observed at this time

METAR text: RJNG 181610Z VRB02KT 9999 BKN070 13/10 Q1013 RMK 5AC070 A2991
Conditions at: RJNG (GIFU (JASDF) , JP) observed 1610 UTC 18 April 2019
Temperature: 13.0°C (55°F)
Dewpoint: 10.0°C (50°F) [RH = 82%]
Pressure (altimeter): 29.91 inches Hg (1013.0 mb)
Winds: variable direction winds at 2 MPH (2 knots; 1.0 m/s)
Visibility: 6 or more miles (10+ km)
Ceiling: 7000 feet AGL
Clouds: broken clouds at 7000 feet AGL
Weather: no significant weather observed at this time